Time;durP1;ratioP1;P1;durP2;ratioP2;P2;SDS_P1;SDS_P2;PMS_P1;PMS_P2;Temp;Humidity;BMP_temperature;BMP_pressure;BME280_temperature;BME280_humidity;BME280_pressure;Samples;Min_cycle;Max_cycle;Signal;HPM_P1;HPM_P2
2022/04/01 00:00:28;;;;;;;1.13;0.55;;;19.50;44.60;;;;;;4884764;29;20049;-64
2022/04/01 00:02:53;;;;;;;1.20;0.40;;;19.50;44.60;;;;;;4883621;29;20045;-63
2022/04/01 00:05:19;;;;;;;2.05;0.50;;;19.50;44.60;;;;;;4884786;29;20049;-63
2022/04/01 00:07:44;;;;;;;1.88;0.60;;;19.50;44.50;;;;;;4884979;29;20080;-63
2022/04/01 00:10:10;;;;;;;1.70;0.50;;;19.50;44.60;;;;;;4884127;29;20049;-63
2022/04/01 00:12:46;;;;;;;2.33;0.60;;;19.50;44.60;;;;;;4884786;29;20378;-63
2022/04/01 00:15:12;;;;;;;1.67;0.63;;;19.50;44.60;;;;;;4884336;29;20072;-64
2022/04/01 00:17:39;;;;;;;0.90;0.50;;;19.50;45.30;;;;;;4884005;29;20049;-64
2022/04/01 00:20:04;;;;;;;1.45;0.60;;;19.40;44.60;;;;;;4884872;29;20056;-64
2022/04/01 00:22:30;;;;;;;1.40;0.50;;;19.40;44.60;;;;;;4884677;29;20354;-63
2022/04/01 00:24:56;;;;;;;2.05;0.60;;;19.40;44.60;;;;;;4884027;29;20462;-64
2022/04/01 00:27:22;;;;;;;1.05;0.50;;;19.40;44.60;;;;;;4884619;29;20081;-63
2022/04/01 00:29:48;;;;;;;1.55;0.73;;;19.40;44.60;;;;;;4884730;29;20045;-64
2022/04/01 00:32:14;;;;;;;1.38;0.50;;;19.40;44.50;;;;;;4883553;29;20045;-63
2022/04/01 00:34:40;;;;;;;0.80;0.43;;;19.40;44.60;;;;;;4884537;29;20063;-63
2022/04/01 00:37:05;;;;;;;1.80;0.50;;;19.40;44.50;;;;;;4884524;29;20048;-64
2022/04/01 00:39:31;;;;;;;2.28;0.68;;;19.40;44.50;;;;;;4883825;29;20436;-63
2022/04/01 00:41:58;;;;;;;2.42;0.60;;;19.40;44.60;;;;;;4884534;29;20045;-63
2022/04/01 00:44:33;;;;;;;1.38;0.60;;;19.40;44.60;;;;;;4884336;29;20056;-63
2022/04/01 00:47:01;;;;;;;1.88;0.60;;;19.40;44.60;;;;;;4883729;29;20060;-63
2022/04/01 00:49:27;;;;;;;;;;;19.40;44.60;;;;;;4882160;29;20520;-63
2022/04/01 00:51:57;;;;;;;1.38;0.50;;;19.40;45.20;;;;;;4879871;29;19923;-63
2022/04/01 00:54:23;;;;;;;2.50;0.60;;;19.40;44.60;;;;;;4881727;29;20064;-63
2022/04/01 00:56:49;;;;;;;1.35;0.55;;;19.40;44.50;;;;;;4881359;29;20505;-63
2022/04/01 00:59:14;;;;;;;1.27;0.40;;;19.40;44.40;;;;;;4880572;29;20068;-63
2022/04/01 01:01:41;;;;;;;1.38;0.50;;;19.40;44.40;;;;;;4881479;29;20049;-63
2022/04/01 01:04:08;;;;;;;1.70;0.35;;;19.40;44.40;;;;;;4881371;29;20052;-63
2022/04/01 01:06:38;;;;;;;1.25;0.50;;;19.50;44.40;;;;;;4880554;29;20041;-63
2022/04/01 01:09:04;;;;;;;1.25;0.47;;;19.40;44.30;;;;;;4881176;29;20060;-63
2022/04/01 01:11:32;;;;;;;1.30;0.50;;;19.50;44.30;;;;;;4880945;29;20045;-63
2022/04/01 01:13:59;;;;;;;;;;;19.50;44.30;;;;;;4879581;29;20489;-63
2022/04/01 01:16:25;;;;;;;1.52;0.40;;;19.50;44.40;;;;;;4881086;29;20438;-63
2022/04/01 01:19:05;;;;;;;0.85;0.40;;;19.50;44.30;;;;;;4881252;29;20144;-63
2022/04/01 01:21:31;;;;;;;1.85;0.50;;;19.50;44.30;;;;;;4880175;29;20053;-63
2022/04/01 01:24:01;;;;;;;1.33;0.47;;;19.50;44.30;;;;;;4881137;29;20549;-64
2022/04/01 01:26:27;;;;;;;2.75;0.50;;;19.50;44.30;;;;;;4880593;29;20121;-64
2022/04/01 01:28:54;;;;;;;1.80;0.45;;;19.50;44.20;;;;;;4880377;29;20477;-64
2022/04/01 01:31:20;;;;;;;0.60;0.30;;;19.50;44.20;;;;;;4864212;29;20067;-63
2022/04/01 01:33:45;;;;;;;0.82;0.30;;;19.50;44.20;;;;;;4879529;29;20485;-63
2022/04/01 01:36:12;;;;;;;1.42;0.43;;;19.60;44.20;;;;;;4880003;29;20537;-64
2022/04/01 01:38:38;;;;;;;1.50;0.40;;;19.60;44.30;;;;;;4879307;29;20051;-63
2022/04/01 01:41:03;;;;;;;0.30;0.28;;;19.60;44.20;;;;;;4879953;29;20128;-63
2022/04/01 01:43:29;;;;;;;1.42;0.60;;;19.60;44.20;;;;;;4880530;29;20140;-63
2022/04/01 01:45:55;;;;;;;0.90;0.43;;;19.60;44.20;;;;;;4880364;29;20124;-63
2022/04/01 01:48:22;;;;;;;1.15;0.45;;;19.60;44.10;;;;;;4879470;29;20048;-63
2022/04/01 01:56:17;;;;;;;1.27;0.60;;;19.60;44.10;;;;;;4879379;29;20048;-63
2022/04/01 01:58:43;;;;;;;1.70;0.50;;;19.70;44.10;;;;;;4879326;29;20037;-63
2022/04/01 02:01:09;;;;;;;0.88;0.45;;;19.60;44.00;;;;;;4871867;29;20049;-63
2022/04/01 02:03:35;;;;;;;2.03;0.60;;;19.60;44.00;;;;;;4860797;29;20052;-63
2022/04/01 02:06:00;;;;;;;0.68;0.38;;;19.60;44.00;;;;;;4860933;29;20049;-63
2022/04/01 02:08:26;;;;;;;1.08;0.50;;;19.70;44.00;;;;;;4861419;29;20094;-63
2022/04/01 02:10:51;;;;;;;1.20;0.40;;;19.70;44.10;;;;;;4861007;29;20054;-63
2022/04/01 02:13:17;;;;;;;1.33;0.40;;;19.70;44.00;;;;;;4861022;29;20088;-63
2022/04/01 02:15:43;;;;;;;1.20;0.43;;;19.70;43.90;;;;;;4861361;29;20527;-63
2022/04/01 02:18:10;;;;;;;1.48;0.30;;;19.70;43.90;;;;;;4860878;29;20074;-63
2022/04/01 02:20:36;;;;;;;1.25;0.47;;;19.70;43.80;;;;;;4861333;29;20124;-63
2022/04/01 02:23:03;;;;;;;1.05;0.30;;;19.70;43.80;;;;;;4861353;29;20085;-63
2022/04/01 02:25:29;;;;;;;0.93;0.50;;;19.70;43.80;;;;;;4860576;29;20102;-64
2022/04/01 02:27:55;;;;;;;1.23;0.50;;;19.70;43.80;;;;;;4861587;29;20049;-63
2022/04/01 02:30:20;;;;;;;1.00;0.32;;;19.70;43.80;;;;;;4860400;29;20056;-64
2022/04/01 02:32:47;;;;;;;1.20;0.50;;;19.70;43.70;;;;;;4861256;29;20077;-63
2022/04/01 02:35:12;;;;;;;1.17;0.30;;;19.70;43.70;;;;;;4860671;29;20132;-64
2022/04/01 02:37:39;;;;;;;0.73;0.40;;;19.70;43.70;;;;;;4860682;29;20120;-63
2022/04/01 02:40:05;;;;;;;1.13;0.40;;;19.80;43.70;;;;;;4861076;29;20416;-63
2022/04/01 02:42:30;;;;;;;1.70;0.40;;;19.80;43.70;;;;;;4859756;29;20501;-63
2022/04/01 02:44:56;;;;;;;0.50;0.35;;;19.80;43.70;;;;;;4860501;29;20085;-63
2022/04/01 02:47:22;;;;;;;1.35;0.43;;;19.80;43.60;;;;;;4860466;29;20049;-63
2022/04/01 02:49:47;;;;;;;2.05;0.40;;;19.80;43.60;;;;;;4860505;29;20525;-63
2022/04/01 02:52:13;;;;;;;2.35;0.50;;;19.80;43.60;;;;;;4860057;29;20056;-63
2022/04/01 02:54:39;;;;;;;0.98;0.40;;;19.80;43.50;;;;;;4861004;29;20116;-64
2022/04/01 02:57:04;;;;;;;1.52;0.38;;;19.80;43.50;;;;;;4860574;29;20128;-63
2022/04/01 02:59:30;;;;;;;1.38;0.40;;;19.80;43.50;;;;;;4859891;29;20185;-63
2022/04/01 03:01:56;;;;;;;0.88;0.30;;;19.80;43.50;;;;;;4860949;29;20049;-63
2022/04/01 03:04:21;;;;;;;0.68;0.30;;;19.80;43.50;;;;;;4860090;29;20045;-63
2022/04/01 03:06:47;;;;;;;1.45;0.40;;;19.80;43.50;;;;;;4860083;29;20128;-63
2022/04/01 03:09:13;;;;;;;0.88;0.30;;;19.80;43.50;;;;;;4860398;29;20054;-63
2022/04/01 03:11:39;;;;;;;1.60;0.30;;;19.80;43.50;;;;;;4859840;29;20052;-63
2022/04/01 03:14:06;;;;;;;0.73;0.20;;;19.80;43.50;;;;;;4859811;29;20049;-63
2022/04/01 03:16:32;;;;;;;0.55;0.32;;;19.80;43.50;;;;;;4860335;29;20073;-63
2022/04/01 03:18:59;;;;;;;1.00;0.40;;;19.80;43.50;;;;;;4860497;29;20132;-63
2022/04/01 03:21:25;;;;;;;0.70;0.32;;;19.80;43.40;;;;;;4859508;29;20509;-63
2022/04/01 03:23:51;;;;;;;1.13;0.43;;;19.90;43.50;;;;;;4860768;29;20045;-63
2022/04/01 03:26:17;;;;;;;0.70;0.35;;;19.90;43.40;;;;;;4860051;29;20490;-63
2022/04/01 03:28:42;;;;;;;0.90;0.40;;;19.90;43.40;;;;;;4859751;29;20132;-63
2022/04/01 03:31:09;;;;;;;1.42;0.50;;;19.90;44.20;;;;;;4860566;29;20054;-63
2022/04/01 03:33:35;;;;;;;1.25;0.30;;;19.90;43.40;;;;;;4858934;29;20050;-63
2022/04/01 03:36:01;;;;;;;0.95;0.30;;;19.90;43.30;;;;;;4860339;29;20409;-63
2022/04/01 03:38:27;;;;;;;0.82;0.30;;;19.90;43.40;;;;;;4860293;29;20132;-63
2022/04/01 03:40:52;;;;;;;0.85;0.32;;;19.90;43.40;;;;;;4859517;29;20128;-63
2022/04/01 03:43:20;;;;;;;1.77;0.50;;;19.90;43.30;;;;;;4859788;29;20509;-63
2022/04/01 03:45:47;;;;;;;0.82;0.40;;;19.90;43.30;;;;;;4860545;29;20065;-63
2022/04/01 03:48:45;;;;;;;0.95;0.40;;;19.90;43.30;;;;;;4859212;29;20061;-63
2022/04/01 03:51:19;;;;;;;1.05;0.40;;;19.90;43.30;;;;;;4856102;29;20096;-63
2022/04/01 03:53:54;;;;;;;1.23;0.40;;;19.90;43.30;;;;;;4860189;29;20401;-63
2022/04/01 03:56:28;;;;;;;0.68;0.30;;;19.90;43.30;;;;;;4859137;29;20041;-63
2022/04/01 03:58:53;;;;;;;1.23;0.40;;;19.90;43.30;;;;;;4859365;29;20049;-63
2022/04/01 04:01:19;;;;;;;1.83;0.40;;;19.90;43.30;;;;;;4858572;29;20375;-63
2022/04/01 04:03:45;;;;;;;1.02;0.40;;;19.90;43.20;;;;;;4859219;29;20077;-63
2022/04/01 04:06:10;;;;;;;2.28;0.50;;;20.00;43.30;;;;;;4857793;29;20544;-63
2022/04/01 04:08:36;;;;;;;0.50;0.28;;;20.00;43.30;;;;;;4857747;29;20046;-63
2022/04/01 04:11:01;;;;;;;1.25;0.40;;;20.00;43.20;;;;;;4858535;29;20074;-63
2022/04/01 04:13:27;;;;;;;0.40;0.30;;;20.00;43.30;;;;;;4858610;29;20405;-63
2022/04/01 04:16:18;;;;;;;0.90;0.28;;;20.00;43.30;;;;;;4859105;29;20097;-63
2022/04/01 04:18:52;;;;;;;1.55;0.55;;;20.00;43.20;;;;;;4855181;29;20045;-63
2022/04/01 04:21:25;;;;;;;0.57;0.30;;;20.00;43.20;;;;;;4859571;29;20041;-63
2022/04/01 04:24:03;;;;;;;1.25;0.40;;;20.00;43.20;;;;;;4860903;29;20059;-63
2022/04/01 04:26:39;;;;;;;;;;;20.00;43.30;;;;;;4863839;29;20128;-63
2022/04/01 04:29:12;;;;;;;1.25;0.35;;;20.00;43.30;;;;;;4861993;29;19931;-63
2022/04/01 04:31:38;;;;;;;0.73;0.35;;;20.00;43.30;;;;;;4862766;29;20093;-63
2022/04/01 04:34:06;;;;;;;0.63;0.28;;;20.00;43.20;;;;;;4863211;29;20101;-64
2022/04/01 04:36:40;;;;;;;0.80;0.30;;;20.00;43.20;;;;;;4861986;29;20057;-63
2022/04/01 04:39:07;;;;;;;0.85;0.22;;;20.00;43.20;;;;;;4862746;29;20042;-63
2022/04/01 04:41:33;;;;;;;1.38;0.43;;;20.00;43.20;;;;;;4863131;29;20150;-63
2022/04/01 04:43:59;;;;;;;1.05;0.50;;;20.00;43.20;;;;;;4863331;29;20038;-63
2022/04/01 04:46:25;;;;;;;1.02;0.30;;;20.00;43.20;;;;;;4862852;29;20092;-63
2022/04/01 04:48:51;;;;;;;0.93;0.30;;;20.00;43.10;;;;;;4861915;29;20049;-63
2022/04/01 04:51:17;;;;;;;0.82;0.30;;;20.00;43.10;;;;;;4860755;29;20053;-63
2022/04/01 04:53:43;;;;;;;0.52;0.30;;;20.00;43.20;;;;;;4861991;29;20077;-63
2022/04/01 04:56:09;;;;;;;0.80;0.30;;;20.00;43.20;;;;;;4861781;29;20136;-63
2022/04/01 04:58:39;;;;;;;0.85;0.30;;;20.00;43.80;;;;;;4862060;29;20414;-63
2022/04/01 05:01:24;;;;;;;1.33;0.30;;;20.00;43.20;;;;;;4862907;29;20052;-63
2022/04/01 05:04:12;;;;;;;1.15;0.35;;;20.00;43.10;;;;;;4862687;29;20049;-63
2022/04/01 05:06:49;;;;;;;0.73;0.25;;;20.00;43.20;;;;;;4862102;29;20052;-63
2022/04/01 05:09:41;;;;;;;0.73;0.20;;;20.10;43.20;;;;;;4845953;29;20463;-63
2022/04/01 05:12:16;;;;;;;1.77;0.40;;;20.10;43.20;;;;;;4846036;29;20132;-63
2022/04/01 05:14:54;;;;;;;0.95;0.30;;;20.10;43.20;;;;;;4862448;29;20064;-63
2022/04/01 05:17:35;;;;;;;1.38;0.40;;;20.10;43.10;;;;;;4862296;29;20492;-63
2022/04/01 05:20:01;;;;;;;1.83;0.30;;;20.10;43.10;;;;;;4862050;29;20049;-63
2022/04/01 05:22:36;;;;;;;0.60;0.30;;;20.10;43.10;;;;;;4862297;29;20056;-63
2022/04/01 05:25:03;;;;;;;0.77;0.30;;;20.10;43.10;;;;;;4862549;29;20045;-63
2022/04/01 05:27:30;;;;;;;0.82;0.38;;;20.10;43.00;;;;;;4861560;29;20077;-63
2022/04/01 05:30:16;;;;;;;1.13;0.40;;;20.10;43.10;;;;;;4862223;29;20486;-63
2022/04/01 05:32:58;;;;;;;1.27;0.32;;;20.10;43.10;;;;;;4862294;29;20060;-63
2022/04/01 05:35:29;;;;;;;0.75;0.30;;;20.10;43.00;;;;;;4859611;29;20068;-63
2022/04/01 05:37:55;;;;;;;0.73;0.22;;;20.10;43.00;;;;;;4861178;29;20121;-63
2022/04/01 05:40:21;;;;;;;1.00;0.40;;;20.10;43.00;;;;;;4859943;29;20110;-63
2022/04/01 05:42:47;;;;;;;0.75;0.38;;;20.10;43.00;;;;;;4861835;29;20178;-63
2022/04/01 05:45:12;;;;;;;0.98;0.40;;;20.10;43.30;;;;;;4860780;29;20044;-63
2022/04/01 05:47:38;;;;;;;1.10;0.40;;;20.10;42.90;;;;;;4861099;29;20132;-63
2022/04/01 05:50:04;;;;;;;0.40;0.30;;;20.10;42.90;;;;;;4861108;29;20057;-64
2022/04/01 05:52:31;;;;;;;0.90;0.40;;;20.10;42.90;;;;;;4861500;29;20064;-63
2022/04/01 05:54:57;;;;;;;0.90;0.43;;;20.10;42.80;;;;;;4860072;29;20318;-63
2022/04/01 05:57:23;;;;;;;0.68;0.30;;;20.10;42.80;;;;;;4860584;29;20057;-63
2022/04/01 05:59:48;;;;;;;0.90;0.50;;;20.10;42.80;;;;;;4861858;29;20042;-63
2022/04/01 06:02:44;;;;;;;0.65;0.30;;;20.10;42.80;;;;;;4860581;29;20057;-63
2022/04/01 06:05:34;;;;;;;0.93;0.30;;;20.10;42.80;;;;;;4862073;29;20132;-63
2022/04/01 06:08:11;;;;;;;1.83;0.40;;;20.10;42.70;;;;;;4861598;29;20413;-64
2022/04/01 06:10:59;;;;;;;1.63;0.40;;;20.10;42.70;;;;;;4861732;29;20140;-64
2022/04/01 06:13:33;;;;;;;0.60;0.20;;;20.20;42.60;;;;;;4861149;29;20056;-63
2022/04/01 06:16:20;;;;;;;1.65;0.40;;;20.20;42.70;;;;;;4860466;29;20141;-63
2022/04/01 06:19:06;;;;;;;0.57;0.30;;;20.20;42.70;;;;;;4861163;29;20407;-63
2022/04/01 06:21:44;;;;;;;1.58;0.30;;;20.20;42.70;;;;;;4861308;29;20054;-63
2022/04/01 06:24:11;;;;;;;2.80;0.50;;;20.20;42.80;;;;;;4860019;29;20053;-64
2022/04/01 06:26:39;;;;;;;3.15;0.60;;;20.20;42.90;;;;;;4861425;29;20121;-63
2022/04/01 06:29:22;;;;;;;2.45;0.40;;;20.20;42.90;;;;;;4875187;29;20049;-63
2022/04/01 06:31:51;;;;;;;0.95;0.35;;;20.20;43.00;;;;;;4876729;29;20053;-62
2022/04/01 06:34:21;;;;;;;2.70;0.60;;;20.20;43.00;;;;;;4877758;29;20041;-62
2022/04/01 06:36:51;;;;;;;1.23;0.50;;;20.30;43.20;;;;;;4878003;29;20068;-64
2022/04/01 06:39:30;;;;;;;2.90;0.60;;;20.30;43.40;;;;;;4878581;29;20037;-74
2022/04/01 06:41:57;;;;;;;2.25;0.70;;;20.30;43.50;;;;;;4847310;29;20457;-62
2022/04/01 06:44:23;;;;;;;5.05;0.80;;;20.30;43.70;;;;;;4878270;29;20148;-62
2022/04/01 06:46:48;;;;;;;3.35;0.80;;;20.30;43.80;;;;;;4877635;29;20077;-62
2022/04/01 06:49:14;;;;;;;4.00;0.70;;;20.30;44.10;;;;;;4878690;29;20057;-63
2022/04/01 06:51:40;;;;;;;3.70;1.10;;;20.30;44.10;;;;;;4878248;29;20048;-66
2022/04/01 06:54:05;;;;;;;2.30;0.93;;;20.30;44.20;;;;;;4879677;29;20053;-65
2022/04/01 06:56:31;;;;;;;4.28;0.88;;;20.30;44.30;;;;;;4879513;29;20041;-63
2022/04/01 06:58:57;;;;;;;5.28;0.82;;;20.30;44.30;;;;;;4878555;29;20123;-61
2022/04/01 07:01:22;;;;;;;5.15;0.82;;;20.30;44.40;;;;;;4878632;29;20056;-62
2022/04/01 07:03:48;;;;;;;5.15;0.93;;;20.40;44.50;;;;;;4878950;29;20497;-63
2022/04/01 07:06:13;;;;;;;5.57;0.82;;;20.40;44.40;;;;;;4878210;29;20574;-61
2022/04/01 07:08:39;;;;;;;6.13;1.10;;;20.40;44.50;;;;;;4879064;29;20440;-61
2022/04/01 07:11:04;;;;;;;3.58;0.70;;;20.40;44.50;;;;;;4878886;29;20116;-62
2022/04/01 07:13:30;;;;;;;2.10;0.70;;;20.40;44.50;;;;;;4878075;29;20125;-61
2022/04/01 07:15:56;;;;;;;4.70;0.88;;;20.40;44.60;;;;;;4878847;29;20061;-61
2022/04/01 07:18:22;;;;;;;2.72;0.70;;;20.40;44.50;;;;;;4878705;29;20217;-62
2022/04/01 07:20:47;;;;;;;2.35;0.80;;;20.40;44.50;;;;;;4878309;29;20080;-62
2022/04/01 07:23:13;;;;;;;4.55;0.57;;;20.40;44.60;;;;;;4878779;29;20088;-61
2022/04/01 07:25:39;;;;;;;4.10;0.98;;;20.50;44.60;;;;;;4878071;29;20057;-62
2022/04/01 07:28:04;;;;;;;3.50;0.93;;;20.50;44.50;;;;;;4879085;29;20049;-62
2022/04/01 07:30:30;;;;;;;2.53;0.60;;;20.50;44.60;;;;;;4877274;29;20160;-62
2022/04/01 07:32:57;;;;;;;3.53;0.77;;;20.50;44.40;;;;;;4878072;29;20808;-63
2022/04/01 07:35:23;;;;;;;3.30;0.85;;;20.50;44.40;;;;;;4878553;29;20516;-64
2022/04/01 07:37:48;;;;;;;1.90;0.65;;;20.50;44.40;;;;;;4878589;29;20085;-63
2022/04/01 07:40:14;;;;;;;4.07;0.80;;;20.50;44.50;;;;;;4877987;29;20079;-63
2022/04/01 07:42:39;;;;;;;2.45;0.70;;;20.50;44.60;;;;;;4878402;29;20393;-63
2022/04/01 07:45:06;;;;;;;3.80;0.85;;;20.50;44.70;;;;;;4878699;29;20049;-64
2022/04/01 07:47:32;;;;;;;2.17;0.68;;;20.50;44.80;;;;;;4877655;29;20359;-63
2022/04/01 07:49:59;;;;;;;1.65;0.65;;;20.60;44.80;;;;;;4878520;29;20049;-62
2022/04/01 07:52:24;;;;;;;3.03;0.60;;;20.60;44.90;;;;;;4878249;29;20185;-62
2022/04/01 07:54:50;;;;;;;2.70;0.70;;;20.60;45.00;;;;;;4878084;29;20132;-64
2022/04/01 07:57:16;;;;;;;1.80;0.70;;;20.60;45.00;;;;;;4878236;29;20044;-62
2022/04/01 07:59:42;;;;;;;2.40;0.80;;;20.60;45.10;;;;;;4881750;29;20049;-62
2022/04/01 08:02:07;;;;;;;2.25;0.57;;;20.60;45.10;;;;;;4881717;29;20418;-62
2022/04/01 08:04:33;;;;;;;1.67;0.50;;;20.60;45.20;;;;;;4882018;29;20090;-62
2022/04/01 08:06:59;;;;;;;2.40;0.77;;;20.60;45.20;;;;;;4882423;29;20037;-62
2022/04/01 08:09:24;;;;;;;1.77;0.50;;;20.60;45.30;;;;;;4881159;29;20057;-61
2022/04/01 08:11:50;;;;;;;2.92;0.60;;;20.60;45.30;;;;;;4882285;29;20045;-61
2022/04/01 08:14:17;;;;;;;1.67;0.80;;;20.60;45.30;;;;;;4881485;29;20474;-62
2022/04/01 08:16:43;;;;;;;2.08;0.70;;;20.70;45.40;;;;;;4874363;29;20057;-62
2022/04/01 08:19:09;;;;;;;2.92;0.50;;;20.70;45.40;;;;;;4862852;29;20058;-63
2022/04/01 08:21:35;;;;;;;2.47;0.80;;;20.70;45.40;;;;;;4862351;29;20053;-62
2022/04/01 08:24:00;;;;;;;1.52;0.50;;;20.70;45.40;;;;;;4861879;29;20124;-62
2022/04/01 08:26:26;;;;;;;1.83;0.60;;;20.70;45.30;;;;;;4864897;29;20041;-62
2022/04/01 08:28:52;;;;;;;2.22;0.60;;;20.70;45.40;;;;;;4861927;29;20525;-63
2022/04/01 08:31:17;;;;;;;2.15;0.63;;;20.70;45.30;;;;;;4862258;29;20072;-61
2022/04/01 08:33:44;;;;;;;3.22;0.70;;;20.70;45.30;;;;;;4862679;29;20045;-61
2022/04/01 08:36:09;;;;;;;2.50;0.80;;;20.70;45.30;;;;;;4862615;29;20478;-61
2022/04/01 08:38:35;;;;;;;1.60;0.50;;;20.70;45.30;;;;;;4862521;29;20557;-62
2022/04/01 08:41:01;;;;;;;3.47;0.63;;;20.70;45.20;;;;;;4880191;29;20049;-62
2022/04/01 08:43:31;;;;;;;1.20;0.50;;;20.70;45.20;;;;;;4881431;29;20041;-62
2022/04/01 08:45:58;;;;;;;3.20;0.60;;;20.70;45.20;;;;;;4881822;29;20497;-62
2022/04/01 08:48:24;;;;;;;2.30;0.68;;;20.70;45.10;;;;;;4881039;29;20037;-62
2022/04/01 08:50:50;;;;;;;1.98;0.60;;;20.70;45.10;;;;;;4880893;29;20523;-62
2022/04/01 08:53:15;;;;;;;1.88;0.63;;;20.70;44.90;;;;;;4881342;29;20045;-61
2022/04/01 08:55:48;;;;;;;1.10;0.43;;;20.70;44.90;;;;;;4881500;29;20105;-61
2022/04/01 08:58:16;;;;;;;2.47;0.68;;;20.70;45.00;;;;;;4879430;29;20049;-61
2022/04/01 09:00:42;;;;;;;2.40;0.60;;;20.70;45.10;;;;;;4881415;29;20201;-61
2022/04/01 09:03:09;;;;;;;1.60;0.70;;;20.70;45.10;;;;;;4880820;29;20045;-61
2022/04/01 09:05:34;;;;;;;1.65;0.63;;;20.70;45.10;;;;;;4880158;29;20128;-61
2022/04/01 09:08:01;;;;;;;2.78;0.90;;;20.70;45.10;;;;;;4881480;29;20087;-61
2022/04/01 09:10:26;;;;;;;1.45;0.60;;;20.70;45.10;;;;;;4879772;29;20053;-66
2022/04/01 09:12:52;;;;;;;3.65;1.15;;;20.70;45.00;;;;;;4878954;29;20051;-61
2022/04/01 09:15:19;;;;;;;2.55;1.00;;;20.70;44.90;;;;;;4879580;29;20550;-61
2022/04/01 09:17:46;;;;;;;3.70;0.90;;;20.70;44.80;;;;;;4880234;29;20053;-61
2022/04/01 09:20:12;;;;;;;2.42;0.80;;;20.70;44.70;;;;;;4880202;29;20045;-61
2022/04/01 09:22:39;;;;;;;2.03;0.68;;;20.70;45.20;;;;;;4880718;29;20056;-61
2022/04/01 09:25:05;;;;;;;2.17;0.90;;;20.80;44.50;;;;;;4880315;29;20139;-64
2022/04/01 09:27:46;;;;;;;2.80;0.80;;;20.80;44.50;;;;;;4880093;29;20060;-63
2022/04/01 09:30:22;;;;;;;2.70;0.80;;;20.80;44.50;;;;;;4880822;29;20044;-62
2022/04/01 09:32:49;;;;;;;2.03;0.80;;;20.80;44.50;;;;;;4881939;29;20045;-62
2022/04/01 09:35:16;;;;;;;3.60;1.10;;;20.80;44.50;;;;;;4881147;29;20048;-61
2022/04/01 09:37:49;;;;;;;2.85;1.15;;;20.80;44.50;;;;;;4880872;29;20077;-61
2022/04/01 09:40:18;;;;;;;4.45;1.17;;;20.80;44.50;;;;;;4879264;29;20049;-61
2022/04/01 09:42:51;;;;;;;2.63;0.90;;;20.80;44.60;;;;;;4880727;29;20049;-62
2022/04/01 09:45:17;;;;;;;3.13;0.98;;;20.80;44.70;;;;;;4879507;29;20045;-61
2022/04/01 09:47:43;;;;;;;5.88;1.02;;;20.80;44.60;;;;;;4879366;29;20109;-61
2022/04/01 09:50:11;;;;;;;3.92;1.13;;;20.90;44.80;;;;;;4878228;29;20092;-62
2022/04/01 09:52:37;;;;;;;5.45;1.20;;;20.90;44.80;;;;;;4880121;29;20044;-62
2022/04/01 09:55:03;;;;;;;3.80;1.00;;;20.90;44.80;;;;;;4879408;29;20049;-61
2022/04/01 09:57:28;;;;;;;2.40;0.95;;;20.90;44.80;;;;;;4878760;29;20033;-62
2022/04/01 09:59:54;;;;;;;1.95;0.65;;;20.90;44.80;;;;;;4875377;29;20049;-61
2022/04/01 10:02:20;;;;;;;4.82;1.10;;;20.90;44.80;;;;;;4878586;29;20041;-61
2022/04/01 10:04:45;;;;;;;2.65;0.90;;;21.00;44.90;;;;;;4879181;29;20032;-61
2022/04/01 10:07:11;;;;;;;2.78;1.00;;;20.90;44.80;;;;;;4878859;29;20404;-61
2022/04/01 10:09:37;;;;;;;2.83;1.00;;;21.00;44.90;;;;;;4878263;29;20049;-61
2022/04/01 10:12:06;;;;;;;4.50;0.85;;;21.00;44.80;;;;;;4879046;29;20049;-61
2022/04/01 10:14:31;;;;;;;2.40;1.23;;;21.00;44.80;;;;;;4861693;29;20053;-61
2022/04/01 10:17:00;;;;;;;2.60;1.00;;;21.00;44.80;;;;;;4879258;29;20047;-61
2022/04/01 10:19:30;;;;;;;3.38;1.10;;;21.00;44.70;;;;;;4878771;29;20045;-60
2022/04/01 10:21:56;;;;;;;2.20;1.15;;;21.00;44.70;;;;;;4875308;29;20089;-61
2022/04/01 10:24:56;;;;;;;2.97;1.10;;;21.00;44.70;;;;;;4879460;29;20045;-61
2022/04/01 10:27:33;;;;;;;2.45;1.17;;;21.00;44.60;;;;;;4879382;29;20045;-61
2022/04/01 10:29:59;;;;;;;2.38;1.20;;;21.10;44.50;;;;;;4875836;29;20049;-61
2022/04/01 10:32:29;;;;;;;2.42;1.08;;;21.10;44.60;;;;;;4879224;29;20048;-61
2022/04/01 10:34:56;;;;;;;1.83;0.80;;;21.10;44.60;;;;;;4877172;29;20049;-62
2022/04/01 10:37:23;;;;;;;2.45;0.93;;;21.10;44.50;;;;;;4878080;29;20040;-62
2022/04/01 10:40:16;;;;;;;3.30;1.30;;;21.10;44.50;;;;;;4878267;29;20044;-61
2022/04/01 10:42:41;;;;;;;1.83;0.80;;;21.10;44.40;;;;;;4877197;29;20461;-61
2022/04/01 10:45:15;;;;;;;3.33;1.30;;;21.10;44.40;;;;;;4879200;29;20060;-62
2022/04/01 10:53:45;;;;;;;3.47;1.13;;;21.10;44.40;;;;;;4879288;29;20056;-62
2022/04/01 10:56:26;;;;;;;3.33;1.67;;;21.10;44.50;;;;;;4879356;29;20053;-62
2022/04/01 10:59:09;;;;;;;3.67;1.40;;;21.10;44.50;;;;;;4878338;29;20390;-61
2022/04/01 11:01:53;;;;;;;4.07;1.35;;;21.10;44.60;;;;;;4878665;29;20048;-62
2022/04/01 11:04:18;;;;;;;4.40;1.60;;;21.10;44.30;;;;;;4875355;29;20080;-63
2022/04/01 11:07:00;;;;;;;2.65;1.40;;;21.10;44.30;;;;;;4878779;29;20065;-63
2022/04/01 11:09:36;;;;;;;3.67;1.30;;;21.10;44.30;;;;;;4875588;29;20146;-62
2022/04/01 11:12:17;;;;;;;4.38;1.88;;;21.10;44.40;;;;;;4875813;29;20470;-61
2022/04/01 11:14:57;;;;;;;16.17;2.92;;;21.10;44.10;;;;;;4877269;29;20067;-61
2022/04/01 11:17:27;;;;;;;7.82;2.30;;;21.10;44.30;;;;;;4878824;29;20068;-61
2022/04/01 11:20:05;;;;;;;16.75;2.25;;;21.10;44.40;;;;;;4878539;29;20106;-61
2022/04/01 11:22:39;;;;;;;7.00;1.50;;;21.10;44.30;;;;;;4878864;29;20056;-61
2022/04/01 11:25:05;;;;;;;5.45;1.67;;;21.10;44.30;;;;;;4878353;29;20128;-61
2022/04/01 11:27:31;;;;;;;5.28;1.58;;;21.10;44.30;;;;;;4878973;29;20481;-62
2022/04/01 11:30:12;;;;;;;6.05;1.77;;;21.10;44.10;;;;;;4878856;29;20093;-61
2022/04/01 11:32:38;;;;;;;6.60;1.70;;;21.10;43.70;;;;;;4877272;29;20085;-61
2022/04/01 11:35:08;;;;;;;6.85;1.50;;;21.10;43.70;;;;;;4878997;29;20100;-61
2022/04/01 11:37:42;;;;;;;4.82;1.40;;;21.10;43.70;;;;;;4878834;29;20070;-61
2022/04/01 11:40:11;;;;;;;4.97;1.42;;;21.10;43.70;;;;;;4878157;29;20501;-61
2022/04/01 11:42:58;;;;;;;10.73;1.58;;;21.10;43.70;;;;;;4878893;29;20055;-61
2022/04/01 11:45:24;;;;;;;5.05;1.42;;;21.10;44.50;;;;;;4878303;29;20049;-61
2022/04/01 11:47:50;;;;;;;5.38;1.42;;;21.10;43.80;;;;;;4878266;29;20091;-61
2022/04/01 11:50:17;;;;;;;5.88;1.50;;;21.10;43.70;;;;;;4878156;29;20081;-61
2022/04/01 11:52:45;;;;;;;3.85;1.05;;;21.20;43.70;;;;;;4879095;29;20505;-61
2022/04/01 11:55:18;;;;;;;2.72;1.20;;;21.20;43.80;;;;;;4877955;29;20056;-62
2022/04/01 11:57:44;;;;;;;5.95;1.40;;;21.20;43.80;;;;;;4878623;29;20056;-61
2022/04/01 12:00:19;;;;;;;3.97;1.63;;;21.20;43.80;;;;;;4878075;29;20160;-61
2022/04/01 12:02:46;;;;;;;6.15;1.23;;;21.20;44.30;;;;;;4878859;29;20105;-61
2022/04/01 12:05:12;;;;;;;3.60;1.45;;;21.20;43.60;;;;;;4878039;29;20454;-61
2022/04/01 12:10:23;;;;;;;3.58;1.33;;;21.20;43.60;;;;;;4878125;29;20088;-62
2022/04/01 12:12:56;;;;;;;3.72;1.02;;;21.20;43.60;;;;;;4878389;29;20398;-61
2022/04/01 12:15:37;;;;;;;2.47;1.20;;;21.20;43.70;;;;;;4877245;29;20143;-62
2022/04/01 12:18:05;;;;;;;5.88;1.10;;;21.20;43.70;;;;;;4878442;29;20052;-62
2022/04/01 12:20:40;;;;;;;9.13;1.45;;;21.20;43.70;;;;;;4877930;29;20060;-62
2022/04/01 12:23:06;;;;;;;4.85;1.25;;;21.20;43.50;;;;;;4877452;29;20084;-63
2022/04/01 12:25:33;;;;;;;5.25;1.10;;;21.20;43.20;;;;;;4877996;29;20068;-64
2022/04/01 12:28:01;;;;;;;3.60;1.08;;;21.20;43.20;;;;;;4877610;29;20045;-64
2022/04/01 12:30:32;;;;;;;5.72;1.10;;;21.20;43.50;;;;;;4877833;29;20077;-63
2022/04/01 12:33:00;;;;;;;5.32;1.02;;;21.20;43.80;;;;;;4877737;29;20041;-62
2022/04/01 12:35:26;;;;;;;;;;;21.20;43.90;;;;;;4877211;29;20497;-63
2022/04/01 12:38:12;;;;;;;5.68;1.33;;;21.20;44.10;;;;;;4878181;29;19926;-62
2022/04/01 12:40:43;;;;;;;4.32;0.85;;;21.20;44.20;;;;;;4876352;29;20067;-62
2022/04/01 12:43:28;;;;;;;4.68;0.93;;;21.20;44.20;;;;;;4875290;29;20144;-62
2022/04/01 12:46:00;;;;;;;3.28;1.00;;;21.20;44.20;;;;;;4879406;29;20055;-62
2022/04/01 12:48:26;;;;;;;3.67;0.80;;;21.20;44.40;;;;;;4880661;29;20394;-63
2022/04/01 12:50:54;;;;;;;5.25;1.20;;;21.20;44.40;;;;;;4880381;29;20549;-62
2022/04/01 12:53:20;;;;;;;2.88;0.70;;;21.30;44.50;;;;;;4879891;29;20048;-63
2022/04/01 12:55:45;;;;;;;2.88;0.73;;;21.30;44.60;;;;;;4881116;29;20048;-62
2022/04/01 12:58:14;;;;;;;3.90;0.98;;;21.30;44.60;;;;;;4878786;29;20064;-62
2022/04/01 13:00:40;;;;;;;2.38;0.93;;;21.30;44.60;;;;;;4880888;29;20041;-61
2022/04/01 13:03:05;;;;;;;3.17;0.85;;;21.30;44.70;;;;;;4880468;29;20057;-62
2022/04/01 13:05:31;;;;;;;3.40;0.90;;;21.30;44.60;;;;;;4879912;29;20056;-62
2022/04/01 13:07:56;;;;;;;2.75;0.90;;;21.30;44.70;;;;;;4880044;29;20127;-61
2022/04/01 13:10:23;;;;;;;2.92;1.20;;;21.30;44.70;;;;;;4879286;29;20049;-61